sensor_id;sensor_type;location;lat;lon;timestamp;pressure;altitude;pressure_sealevel;temperature;humidity
50672;BME280;46021;55.882;37.654;2023-07-22T00:00:30;98817.50;;;13.41;65.24
50672;BME280;46021;55.882;37.654;2023-07-22T00:02:57;98809.25;;;13.33;65.61
50672;BME280;46021;55.882;37.654;2023-07-22T00:05:24;98826.38;;;13.38;65.18
50672;BME280;46021;55.882;37.654;2023-07-22T00:07:53;98821.25;;;13.37;65.43
50672;BME280;46021;55.882;37.654;2023-07-22T00:10:20;98819.53;;;13.36;65.25
50672;BME280;46021;55.882;37.654;2023-07-22T00:12:47;98821.41;;;13.34;65.39
50672;BME280;46021;55.882;37.654;2023-07-22T00:15:14;98806.09;;;13.26;65.42
50672;BME280;46021;55.882;37.654;2023-07-22T00:17:41;98820.66;;;13.32;65.71
50672;BME280;46021;55.882;37.654;2023-07-22T00:20:10;98814.63;;;13.30;65.43
50672;BME280;46021;55.882;37.654;2023-07-22T00:22:37;98810.41;;;13.27;65.69
50672;BME280;46021;55.882;37.654;2023-07-22T00:25:09;98814.78;;;13.26;66.01
50672;BME280;46021;55.882;37.654;2023-07-22T00:27:36;98822.72;;;13.25;66.04
50672;BME280;46021;55.882;37.654;2023-07-22T00:30:05;98820.03;;;13.26;65.66
50672;BME280;46021;55.882;37.654;2023-07-22T00:32:33;98821.72;;;13.27;65.43
50672;BME280;46021;55.882;37.654;2023-07-22T00:35:03;98823.59;;;13.25;65.70
50672;BME280;46021;55.882;37.654;2023-07-22T00:37:30;98824.59;;;13.23;66.00
50672;BME280;46021;55.882;37.654;2023-07-22T00:39:58;98832.53;;;13.21;65.43
50672;BME280;46021;55.882;37.654;2023-07-22T00:42:26;98825.78;;;13.17;65.65
50672;BME280;46021;55.882;37.654;2023-07-22T00:44:53;98833.47;;;13.20;65.47
50672;BME280;46021;55.882;37.654;2023-07-22T00:47:20;98836.09;;;13.20;65.52
50672;BME280;46021;55.882;37.654;2023-07-22T00:49:49;98828.31;;;13.19;65.35
50672;BME280;46021;55.882;37.654;2023-07-22T00:52:16;98829.34;;;13.16;65.80
50672;BME280;46021;55.882;37.654;2023-07-22T00:54:44;98838.44;;;13.09;65.92
50672;BME280;46021;55.882;37.654;2023-07-22T00:57:12;98833.22;;;13.09;66.23
50672;BME280;46021;55.882;37.654;2023-07-22T00:59:40;98845.19;;;13.13;66.02
50672;BME280;46021;55.882;37.654;2023-07-22T01:02:07;98845.03;;;13.16;66.13
50672;BME280;46021;55.882;37.654;2023-07-22T01:04:35;98837.88;;;13.20;66.04
50672;BME280;46021;55.882;37.654;2023-07-22T01:07:04;98833.47;;;13.20;65.75
50672;BME280;46021;55.882;37.654;2023-07-22T01:09:36;98835.41;;;13.17;65.48
50672;BME280;46021;55.882;37.654;2023-07-22T01:12:04;98838.84;;;13.17;65.38
50672;BME280;46021;55.882;37.654;2023-07-22T01:14:33;98839.03;;;13.14;65.31
50672;BME280;46021;55.882;37.654;2023-07-22T01:17:02;98838.09;;;13.15;66.49
50672;BME280;46021;55.882;37.654;2023-07-22T01:19:30;98836.59;;;13.11;65.51
50672;BME280;46021;55.882;37.654;2023-07-22T01:21:57;98836.59;;;13.11;65.54
50672;BME280;46021;55.882;37.654;2023-07-22T01:24:27;98844.53;;;13.10;66.05
50672;BME280;46021;55.882;37.654;2023-07-22T01:26:55;98842.66;;;13.12;66.12
50672;BME280;46021;55.882;37.654;2023-07-22T01:29:23;98841.81;;;13.11;65.79
50672;BME280;46021;55.882;37.654;2023-07-22T01:31:51;98843.53;;;13.12;65.72
50672;BME280;46021;55.882;37.654;2023-07-22T01:34:19;98853.91;;;13.14;65.67
50672;BME280;46021;55.882;37.654;2023-07-22T01:36:47;98855.66;;;13.13;65.52
50672;BME280;46021;55.882;37.654;2023-07-22T01:39:15;98853.13;;;13.12;65.67
50672;BME280;46021;55.882;37.654;2023-07-22T01:41:43;98854.00;;;13.12;66.11
50672;BME280;46021;55.882;37.654;2023-07-22T01:44:11;98858.47;;;13.10;65.81
50672;BME280;46021;55.882;37.654;2023-07-22T01:46:38;98867.16;;;13.11;66.28
50672;BME280;46021;55.882;37.654;2023-07-22T01:49:07;98870.78;;;13.08;66.69
50672;BME280;46021;55.882;37.654;2023-07-22T01:51:36;98872.53;;;13.07;66.56
50672;BME280;46021;55.882;37.654;2023-07-22T01:54:03;98872.47;;;13.09;67.10
50672;BME280;46021;55.882;37.654;2023-07-22T01:56:30;98868.81;;;13.12;66.96
50672;BME280;46021;55.882;37.654;2023-07-22T01:58:59;98875.41;;;13.19;66.31
50672;BME280;46021;55.882;37.654;2023-07-22T02:01:26;98876.09;;;13.22;66.47
50672;BME280;46021;55.882;37.654;2023-07-22T02:03:54;98872.88;;;13.17;66.93
50672;BME280;46021;55.882;37.654;2023-07-22T02:06:22;98868.41;;;13.19;66.50
50672;BME280;46021;55.882;37.654;2023-07-22T02:08:49;98867.31;;;13.23;66.53
50672;BME280;46021;55.882;37.654;2023-07-22T02:11:17;98873.06;;;13.30;66.91
50672;BME280;46021;55.882;37.654;2023-07-22T02:13:44;98877.19;;;13.34;66.27
50672;BME280;46021;55.882;37.654;2023-07-22T02:16:13;98876.97;;;13.39;66.90
50672;BME280;46021;55.882;37.654;2023-07-22T02:18:42;98874.34;;;13.39;66.62
50672;BME280;46021;55.882;37.654;2023-07-22T02:21:09;98874.16;;;13.42;66.66
50672;BME280;46021;55.882;37.654;2023-07-22T02:23:36;98883.34;;;13.49;66.32
50672;BME280;46021;55.882;37.654;2023-07-22T02:26:03;98879.63;;;13.53;66.13
50672;BME280;46021;55.882;37.654;2023-07-22T02:28:30;98880.97;;;13.60;66.29
50672;BME280;46021;55.882;37.654;2023-07-22T02:31:01;98876.47;;;13.62;66.06
50672;BME280;46021;55.882;37.654;2023-07-22T02:33:32;98879.59;;;13.69;66.16
50672;BME280;46021;55.882;37.654;2023-07-22T02:35:59;98880.28;;;13.73;66.15
50672;BME280;46021;55.882;37.654;2023-07-22T02:38:26;98877.13;;;13.82;66.15
50672;BME280;46021;55.882;37.654;2023-07-22T02:40:53;98873.31;;;13.88;65.70
50672;BME280;46021;55.882;37.654;2023-07-22T02:43:20;98879.38;;;13.88;65.44
50672;BME280;46021;55.882;37.654;2023-07-22T02:45:47;98885.97;;;13.95;65.31
50672;BME280;46021;55.882;37.654;2023-07-22T02:48:14;98883.06;;;14.00;65.33
50672;BME280;46021;55.882;37.654;2023-07-22T02:50:42;98881.84;;;14.06;65.29
50672;BME280;46021;55.882;37.654;2023-07-22T02:53:09;98890.28;;;14.11;64.74
50672;BME280;46021;55.882;37.654;2023-07-22T02:55:36;98880.28;;;14.17;64.83
50672;BME280;46021;55.882;37.654;2023-07-22T02:58:04;98889.38;;;14.26;64.75
50672;BME280;46021;55.882;37.654;2023-07-22T03:00:31;98893.31;;;14.48;65.47
50672;BME280;46021;55.882;37.654;2023-07-22T03:02:58;98896.91;;;14.75;65.25
50672;BME280;46021;55.882;37.654;2023-07-22T03:05:28;98895.00;;;15.06;65.08
50672;BME280;46021;55.882;37.654;2023-07-22T03:07:58;98894.34;;;15.44;64.96
50672;BME280;46021;55.882;37.654;2023-07-22T03:10:25;98901.84;;;15.77;64.08
50672;BME280;46021;55.882;37.654;2023-07-22T03:12:53;98895.19;;;16.12;62.23
50672;BME280;46021;55.882;37.654;2023-07-22T03:15:21;98892.25;;;16.42;63.27
50672;BME280;46021;55.882;37.654;2023-07-22T03:17:48;98897.91;;;16.74;62.37
50672;BME280;46021;55.882;37.654;2023-07-22T03:20:15;98895.91;;;17.04;62.00
50672;BME280;46021;55.882;37.654;2023-07-22T03:22:45;98897.63;;;17.29;61.09
50672;BME280;46021;55.882;37.654;2023-07-22T03:25:15;98895.94;;;17.28;59.10
50672;BME280;46021;55.882;37.654;2023-07-22T03:27:43;98898.19;;;17.45;59.19
50672;BME280;46021;55.882;37.654;2023-07-22T03:30:13;98892.69;;;17.72;59.07
50672;BME280;46021;55.882;37.654;2023-07-22T03:32:41;98892.59;;;17.98;58.81
50672;BME280;46021;55.882;37.654;2023-07-22T03:35:09;98887.47;;;18.19;57.98
50672;BME280;46021;55.882;37.654;2023-07-22T03:37:36;98898.31;;;18.50;57.44
50672;BME280;46021;55.882;37.654;2023-07-22T03:40:04;98910.00;;;18.81;56.70
50672;BME280;46021;55.882;37.654;2023-07-22T03:42:38;98907.00;;;18.97;55.59
50672;BME280;46021;55.882;37.654;2023-07-22T03:45:07;98903.16;;;18.90;54.56
50672;BME280;46021;55.882;37.654;2023-07-22T03:47:34;98906.25;;;19.18;54.94
50672;BME280;46021;55.882;37.654;2023-07-22T03:50:01;98906.94;;;19.31;54.05
50672;BME280;46021;55.882;37.654;2023-07-22T03:52:30;98911.06;;;19.56;53.69
50672;BME280;46021;55.882;37.654;2023-07-22T03:54:57;98908.00;;;19.83;53.94
50672;BME280;46021;55.882;37.654;2023-07-22T03:57:25;98904.63;;;19.93;52.59
50672;BME280;46021;55.882;37.654;2023-07-22T03:59:54;98916.84;;;19.61;51.52
50672;BME280;46021;55.882;37.654;2023-07-22T04:02:21;98921.13;;;19.30;51.67
50672;BME280;46021;55.882;37.654;2023-07-22T04:04:51;98920.19;;;18.97;52.67
50672;BME280;46021;55.882;37.654;2023-07-22T04:07:18;98920.66;;;18.68;52.19
50672;BME280;46021;55.882;37.654;2023-07-22T04:09:45;98915.94;;;18.49;52.44
50672;BME280;46021;55.882;37.654;2023-07-22T04:12:12;98915.53;;;18.20;52.75
50672;BME280;46021;55.882;37.654;2023-07-22T04:14:39;98917.81;;;17.89;52.89
50672;BME280;46021;55.882;37.654;2023-07-22T04:17:08;98912.63;;;18.12;54.75
50672;BME280;46021;55.882;37.654;2023-07-22T04:19:35;98912.72;;;18.80;54.88
50672;BME280;46021;55.882;37.654;2023-07-22T04:22:02;98917.22;;;19.57;53.58
50672;BME280;46021;55.882;37.654;2023-07-22T04:24:30;98894.50;;;20.19;52.38
50672;BME280;46021;55.882;37.654;2023-07-22T04:27:00;98909.16;;;20.75;51.45
50672;BME280;46021;55.882;37.654;2023-07-22T04:29:27;98910.41;;;21.11;49.94
50672;BME280;46021;55.882;37.654;2023-07-22T04:31:57;98910.84;;;21.57;49.56
50672;BME280;46021;55.882;37.654;2023-07-22T04:34:28;98913.91;;;22.11;48.57
50672;BME280;46021;55.882;37.654;2023-07-22T04:36:55;98905.19;;;22.38;47.65
50672;BME280;46021;55.882;37.654;2023-07-22T04:39:22;98913.00;;;22.59;45.57
50672;BME280;46021;55.882;37.654;2023-07-22T04:41:50;98913.75;;;22.79;45.90
50672;BME280;46021;55.882;37.654;2023-07-22T04:44:16;98917.09;;;22.81;44.48
50672;BME280;46021;55.882;37.654;2023-07-22T04:46:44;98917.84;;;23.11;45.16
50672;BME280;46021;55.882;37.654;2023-07-22T04:49:10;98918.63;;;23.21;43.00
50672;BME280;46021;55.882;37.654;2023-07-22T04:51:39;98915.88;;;23.41;44.02
50672;BME280;46021;55.882;37.654;2023-07-22T04:54:06;98923.22;;;23.47;43.93
50672;BME280;46021;55.882;37.654;2023-07-22T04:56:33;98929.34;;;23.75;43.77
50672;BME280;46021;55.882;37.654;2023-07-22T04:59:00;98910.75;;;23.29;41.85
50672;BME280;46021;55.882;37.654;2023-07-22T05:01:28;98929.69;;;22.79;42.42
50672;BME280;46021;55.882;37.654;2023-07-22T05:03:55;98928.75;;;23.08;42.78
50672;BME280;46021;55.882;37.654;2023-07-22T05:06:23;98928.94;;;23.06;42.63
50672;BME280;46021;55.882;37.654;2023-07-22T05:08:51;98933.53;;;22.94;42.04
50672;BME280;46021;55.882;37.654;2023-07-22T05:11:18;98937.53;;;23.18;42.49
50672;BME280;46021;55.882;37.654;2023-07-22T05:13:45;98932.28;;;22.61;42.74
50672;BME280;46021;55.882;37.654;2023-07-22T05:16:12;98928.06;;;23.06;43.24
50672;BME280;46021;55.882;37.654;2023-07-22T05:18:39;98926.44;;;23.68;42.84
50672;BME280;46021;55.882;37.654;2023-07-22T05:21:07;98919.91;;;24.17;41.66
50672;BME280;46021;55.882;37.654;2023-07-22T05:23:34;98921.75;;;23.98;40.94
50672;BME280;46021;55.882;37.654;2023-07-22T05:26:02;98932.50;;;23.43;41.13
50672;BME280;46021;55.882;37.654;2023-07-22T05:28:29;98933.19;;;23.17;41.10
50672;BME280;46021;55.882;37.654;2023-07-22T05:30:56;98932.50;;;21.91;42.95
50672;BME280;46021;55.882;37.654;2023-07-22T05:33:23;98931.69;;;21.40;43.95
50672;BME280;46021;55.882;37.654;2023-07-22T05:35:50;98932.88;;;21.17;44.05
50672;BME280;46021;55.882;37.654;2023-07-22T05:38:17;98925.00;;;21.36;45.01
50672;BME280;46021;55.882;37.654;2023-07-22T05:40:44;98923.94;;;21.49;45.08
50672;BME280;46021;55.882;37.654;2023-07-22T05:43:13;98924.09;;;22.06;44.64
50672;BME280;46021;55.882;37.654;2023-07-22T05:45:40;98929.50;;;22.90;44.17
50672;BME280;46021;55.882;37.654;2023-07-22T05:48:07;98919.13;;;23.52;42.42
50672;BME280;46021;55.882;37.654;2023-07-22T05:50:34;98915.75;;;24.40;41.66
50672;BME280;46021;55.882;37.654;2023-07-22T05:53:01;98912.84;;;24.51;40.37
50672;BME280;46021;55.882;37.654;2023-07-22T05:55:27;98913.25;;;24.65;40.03
50672;BME280;46021;55.882;37.654;2023-07-22T05:57:55;98916.28;;;24.70;40.63
50672;BME280;46021;55.882;37.654;2023-07-22T06:00:23;98914.31;;;24.72;39.43
50672;BME280;46021;55.882;37.654;2023-07-22T06:02:50;98922.28;;;24.98;40.07
50672;BME280;46021;55.882;37.654;2023-07-22T06:05:16;98916.31;;;25.55;38.72
50672;BME280;46021;55.882;37.654;2023-07-22T06:07:43;98912.19;;;26.35;38.84
50672;BME280;46021;55.882;37.654;2023-07-22T06:10:10;98927.56;;;26.08;37.79
50672;BME280;46021;55.882;37.654;2023-07-22T06:12:37;98912.38;;;25.92;37.42
50672;BME280;46021;55.882;37.654;2023-07-22T06:15:06;98920.72;;;26.14;37.43
50672;BME280;46021;55.882;37.654;2023-07-22T06:17:35;98918.19;;;26.37;37.33
50672;BME280;46021;55.882;37.654;2023-07-22T06:20:02;98915.50;;;26.70;37.06
50672;BME280;46021;55.882;37.654;2023-07-22T06:22:30;98918.50;;;26.50;36.55
50672;BME280;46021;55.882;37.654;2023-07-22T06:24:57;98920.91;;;26.04;36.47
50672;BME280;46021;55.882;37.654;2023-07-22T06:27:24;98921.44;;;24.98;37.30
50672;BME280;46021;55.882;37.654;2023-07-22T06:29:51;98929.59;;;22.71;40.22
50672;BME280;46021;55.882;37.654;2023-07-22T06:32:18;98921.72;;;21.54;42.28
50672;BME280;46021;55.882;37.654;2023-07-22T06:34:46;98919.38;;;20.79;42.82
50672;BME280;46021;55.882;37.654;2023-07-22T06:37:14;98910.78;;;20.45;43.50
50672;BME280;46021;55.882;37.654;2023-07-22T06:39:41;98921.03;;;20.29;44.01
50672;BME280;46021;55.882;37.654;2023-07-22T06:42:08;98918.16;;;19.99;45.36
50672;BME280;46021;55.882;37.654;2023-07-22T06:44:35;98924.44;;;19.55;46.41
50672;BME280;46021;55.882;37.654;2023-07-22T06:47:02;98921.09;;;19.41;46.60
50672;BME280;46021;55.882;37.654;2023-07-22T06:49:29;98923.66;;;19.20;48.07
50672;BME280;46021;55.882;37.654;2023-07-22T06:51:57;98921.41;;;19.04;48.25
50672;BME280;46021;55.882;37.654;2023-07-22T06:54:24;98922.59;;;19.00;47.62
50672;BME280;46021;55.882;37.654;2023-07-22T06:56:51;98918.28;;;18.99;47.78
50672;BME280;46021;55.882;37.654;2023-07-22T06:59:18;98917.66;;;18.96;48.30
50672;BME280;46021;55.882;37.654;2023-07-22T07:01:45;98914.69;;;18.89;48.63
50672;BME280;46021;55.882;37.654;2023-07-22T07:04:12;98918.53;;;18.96;48.33
50672;BME280;46021;55.882;37.654;2023-07-22T07:06:40;98917.31;;;19.00;48.37
50672;BME280;46021;55.882;37.654;2023-07-22T07:09:08;98924.28;;;19.01;48.68
50672;BME280;46021;55.882;37.654;2023-07-22T07:11:36;98931.75;;;18.85;49.66
50672;BME280;46021;55.882;37.654;2023-07-22T07:14:03;98929.28;;;18.70;49.37
50672;BME280;46021;55.882;37.654;2023-07-22T07:16:31;98924.97;;;18.58;49.03
50672;BME280;46021;55.882;37.654;2023-07-22T07:18:59;98929.63;;;18.55;49.14
50672;BME280;46021;55.882;37.654;2023-07-22T07:21:27;98928.34;;;18.60;48.94
50672;BME280;46021;55.882;37.654;2023-07-22T07:23:55;98920.50;;;18.47;49.86
50672;BME280;46021;55.882;37.654;2023-07-22T07:26:23;98928.56;;;18.68;49.10
50672;BME280;46021;55.882;37.654;2023-07-22T07:28:51;98926.78;;;18.80;49.41
50672;BME280;46021;55.882;37.654;2023-07-22T07:31:18;98920.16;;;18.63;48.88
50672;BME280;46021;55.882;37.654;2023-07-22T07:33:45;98920.66;;;18.68;48.95
50672;BME280;46021;55.882;37.654;2023-07-22T07:36:13;98922.56;;;18.66;49.51
50672;BME280;46021;55.882;37.654;2023-07-22T07:38:40;98925.31;;;18.65;49.65
50672;BME280;46021;55.882;37.654;2023-07-22T07:41:07;98913.22;;;18.74;49.44
50672;BME280;46021;55.882;37.654;2023-07-22T07:43:38;98926.69;;;18.82;49.10
50672;BME280;46021;55.882;37.654;2023-07-22T07:46:13;98925.00;;;18.81;49.91
50672;BME280;46021;55.882;37.654;2023-07-22T07:48:40;98920.69;;;18.91;49.21
50672;BME280;46021;55.882;37.654;2023-07-22T07:51:07;98917.91;;;19.15;49.00
50672;BME280;46021;55.882;37.654;2023-07-22T07:53:34;98925.09;;;19.24;49.06
50672;BME280;46021;55.882;37.654;2023-07-22T07:56:01;98917.28;;;19.34;48.38
50672;BME280;46021;55.882;37.654;2023-07-22T07:58:28;98911.69;;;19.48;48.35
50672;BME280;46021;55.882;37.654;2023-07-22T08:00:57;98903.50;;;19.63;48.44
50672;BME280;46021;55.882;37.654;2023-07-22T08:03:23;98909.31;;;19.89;48.13
50672;BME280;46021;55.882;37.654;2023-07-22T08:05:50;98909.03;;;19.92;47.83
50672;BME280;46021;55.882;37.654;2023-07-22T08:08:17;98904.34;;;19.96;46.95
50672;BME280;46021;55.882;37.654;2023-07-22T08:10:44;98909.91;;;20.14;47.58
50672;BME280;46021;55.882;37.654;2023-07-22T08:13:11;98905.38;;;20.25;47.33
50672;BME280;46021;55.882;37.654;2023-07-22T08:15:38;98904.63;;;20.35;46.84
50672;BME280;46021;55.882;37.654;2023-07-22T08:18:08;98904.78;;;20.43;46.45
50672;BME280;46021;55.882;37.654;2023-07-22T08:20:35;98906.16;;;20.16;45.99
50672;BME280;46021;55.882;37.654;2023-07-22T08:23:02;98911.22;;;20.19;45.92
50672;BME280;46021;55.882;37.654;2023-07-22T08:25:29;98914.50;;;20.33;45.73
50672;BME280;46021;55.882;37.654;2023-07-22T08:27:56;98913.97;;;20.39;46.29
50672;BME280;46021;55.882;37.654;2023-07-22T08:30:23;98901.72;;;20.38;46.63
50672;BME280;46021;55.882;37.654;2023-07-22T08:32:51;98912.66;;;20.54;46.14
50672;BME280;46021;55.882;37.654;2023-07-22T08:35:19;98906.94;;;20.70;45.72
50672;BME280;46021;55.882;37.654;2023-07-22T08:37:47;98908.00;;;20.68;43.87
50672;BME280;46021;55.882;37.654;2023-07-22T08:40:14;98909.50;;;20.81;44.72
50672;BME280;46021;55.882;37.654;2023-07-22T08:42:42;98912.22;;;21.11;44.54
50672;BME280;46021;55.882;37.654;2023-07-22T08:45:10;98911.91;;;21.45;44.05
50672;BME280;46021;55.882;37.654;2023-07-22T08:47:40;98912.75;;;21.55;43.69
50672;BME280;46021;55.882;37.654;2023-07-22T08:50:14;98909.72;;;21.69;43.20
50672;BME280;46021;55.882;37.654;2023-07-22T08:52:43;98922.28;;;21.67;43.49
50672;BME280;46021;55.882;37.654;2023-07-22T08:55:11;98921.69;;;21.44;43.75
50672;BME280;46021;55.882;37.654;2023-07-22T08:57:39;98918.00;;;21.26;45.06
50672;BME280;46021;55.882;37.654;2023-07-22T09:00:07;98914.88;;;22.00;44.77
50672;BME280;46021;55.882;37.654;2023-07-22T09:02:37;98925.00;;;22.63;42.66
50672;BME280;46021;55.882;37.654;2023-07-22T09:05:06;98915.28;;;23.65;41.51
50672;BME280;46021;55.882;37.654;2023-07-22T09:07:35;98919.63;;;24.20;40.15
50672;BME280;46021;55.882;37.654;2023-07-22T09:10:07;98919.31;;;23.87;39.21
50672;BME280;46021;55.882;37.654;2023-07-22T09:12:35;98923.00;;;23.76;39.38
50672;BME280;46021;55.882;37.654;2023-07-22T09:15:08;98909.00;;;23.84;38.97
50672;BME280;46021;55.882;37.654;2023-07-22T09:17:37;98915.44;;;24.43;39.61
50672;BME280;46021;55.882;37.654;2023-07-22T09:20:06;98920.84;;;25.71;38.77
50672;BME280;46021;55.882;37.654;2023-07-22T09:22:33;98916.34;;;26.70;36.65
50672;BME280;46021;55.882;37.654;2023-07-22T09:25:17;98911.19;;;27.48;33.28
50672;BME280;46021;55.882;37.654;2023-07-22T09:27:46;98903.50;;;28.14;34.17
50672;BME280;46021;55.882;37.654;2023-07-22T09:30:24;98911.41;;;27.84;32.43
50672;BME280;46021;55.882;37.654;2023-07-22T09:32:53;98904.34;;;28.67;32.77
50672;BME280;46021;55.882;37.654;2023-07-22T09:35:20;98913.50;;;29.03;31.49
50672;BME280;46021;55.882;37.654;2023-07-22T09:37:48;98903.88;;;28.93;29.95
50672;BME280;46021;55.882;37.654;2023-07-22T09:40:18;98902.66;;;28.96;30.31
50672;BME280;46021;55.882;37.654;2023-07-22T09:42:47;98914.16;;;28.90;30.21
50672;BME280;46021;55.882;37.654;2023-07-22T09:45:14;98910.25;;;29.07;30.67
50672;BME280;46021;55.882;37.654;2023-07-22T09:47:42;98909.66;;;29.78;30.37
50672;BME280;46021;55.882;37.654;2023-07-22T09:50:14;98902.34;;;29.72;29.50
50672;BME280;46021;55.882;37.654;2023-07-22T09:52:46;98914.59;;;29.60;28.88
50672;BME280;46021;55.882;37.654;2023-07-22T09:55:17;98925.31;;;29.38;28.98
50672;BME280;46021;55.882;37.654;2023-07-22T09:57:46;98914.41;;;29.40;28.85
50672;BME280;46021;55.882;37.654;2023-07-22T10:00:15;98911.84;;;29.16;29.21
50672;BME280;46021;55.882;37.654;2023-07-22T10:02:43;98915.44;;;29.24;29.27
50672;BME280;46021;55.882;37.654;2023-07-22T10:05:13;98919.91;;;29.89;28.87
50672;BME280;46021;55.882;37.654;2023-07-22T10:07:44;98918.28;;;27.32;29.94
50672;BME280;46021;55.882;37.654;2023-07-22T10:10:13;98929.03;;;25.70;32.00
50672;BME280;46021;55.882;37.654;2023-07-22T10:12:43;98931.63;;;25.02;32.73
50672;BME280;46021;55.882;37.654;2023-07-22T10:15:11;98942.88;;;24.18;34.88
50672;BME280;46021;55.882;37.654;2023-07-22T10:17:39;98940.53;;;24.85;35.47
50672;BME280;46021;55.882;37.654;2023-07-22T10:20:07;98930.94;;;25.35;33.99
50672;BME280;46021;55.882;37.654;2023-07-22T10:22:37;98920.72;;;26.47;33.18
50672;BME280;46021;55.882;37.654;2023-07-22T10:25:05;98932.84;;;27.21;32.10
50672;BME280;46021;55.882;37.654;2023-07-22T10:27:34;98922.47;;;27.89;31.38
50672;BME280;46021;55.882;37.654;2023-07-22T10:30:03;98912.41;;;28.29;30.33
50672;BME280;46021;55.882;37.654;2023-07-22T10:32:33;98933.25;;;27.73;30.31
50672;BME280;46021;55.882;37.654;2023-07-22T10:35:00;98943.75;;;26.64;31.56
50672;BME280;46021;55.882;37.654;2023-07-22T10:37:31;98927.72;;;26.31;31.42
50672;BME280;46021;55.882;37.654;2023-07-22T10:40:00;98933.41;;;26.20;31.89
50672;BME280;46021;55.882;37.654;2023-07-22T10:42:31;98924.03;;;26.49;31.27
50672;BME280;46021;55.882;37.654;2023-07-22T10:45:00;98936.38;;;26.82;32.08
50672;BME280;46021;55.882;37.654;2023-07-22T10:47:34;98930.47;;;27.35;30.34
50672;BME280;46021;55.882;37.654;2023-07-22T10:50:05;98929.19;;;27.14;30.01
50672;BME280;46021;55.882;37.654;2023-07-22T10:52:38;98931.38;;;27.19;29.97
50672;BME280;46021;55.882;37.654;2023-07-22T10:55:14;98923.03;;;26.66;29.81
50672;BME280;46021;55.882;37.654;2023-07-22T10:57:48;98932.66;;;26.83;28.99
50672;BME280;46021;55.882;37.654;2023-07-22T11:00:18;98925.50;;;27.32;29.13
50672;BME280;46021;55.882;37.654;2023-07-22T11:03:08;98927.88;;;27.81;28.16
50672;BME280;46021;55.882;37.654;2023-07-22T11:05:50;98946.97;;;27.78;28.68
50672;BME280;46021;55.882;37.654;2023-07-22T11:08:37;98921.28;;;27.37;29.20
50672;BME280;46021;55.882;37.654;2023-07-22T11:11:04;98932.03;;;27.52;29.04
50672;BME280;46021;55.882;37.654;2023-07-22T11:13:37;98932.50;;;27.33;28.89
50672;BME280;46021;55.882;37.654;2023-07-22T11:16:10;98940.41;;;27.18;29.36
50672;BME280;46021;55.882;37.654;2023-07-22T11:18:39;98933.38;;;27.17;29.69
50672;BME280;46021;55.882;37.654;2023-07-22T11:21:10;98933.25;;;27.50;28.82
50672;BME280;46021;55.882;37.654;2023-07-22T11:23:37;98940.72;;;27.86;28.72
50672;BME280;46021;55.882;37.654;2023-07-22T11:26:04;98941.59;;;27.78;29.00
50672;BME280;46021;55.882;37.654;2023-07-22T11:28:31;98931.72;;;27.55;28.62
50672;BME280;46021;55.882;37.654;2023-07-22T11:30:58;98936.94;;;27.09;28.43
50672;BME280;46021;55.882;37.654;2023-07-22T11:33:38;98934.19;;;26.78;28.93
50672;BME280;46021;55.882;37.654;2023-07-22T11:36:06;98946.59;;;26.13;30.21
50672;BME280;46021;55.882;37.654;2023-07-22T11:38:32;98942.59;;;26.01;30.00
50672;BME280;46021;55.882;37.654;2023-07-22T11:41:00;98938.75;;;26.20;29.99
50672;BME280;46021;55.882;37.654;2023-07-22T11:43:27;98943.25;;;26.19;30.08
50672;BME280;46021;55.882;37.654;2023-07-22T11:45:54;98937.75;;;26.62;29.50
50672;BME280;46021;55.882;37.654;2023-07-22T11:48:21;98938.41;;;26.31;28.58
50672;BME280;46021;55.882;37.654;2023-07-22T11:50:49;98931.41;;;26.14;28.96
50672;BME280;46021;55.882;37.654;2023-07-22T11:53:16;98938.72;;;26.44;29.66
50672;BME280;46021;55.882;37.654;2023-07-22T11:55:43;98926.25;;;26.04;29.10
50672;BME280;46021;55.882;37.654;2023-07-22T11:58:10;98930.72;;;25.87;29.49
50672;BME280;46021;55.882;37.654;2023-07-22T12:00:42;98934.38;;;25.78;29.60
50672;BME280;46021;55.882;37.654;2023-07-22T12:03:09;98930.31;;;25.57;29.55
50672;BME280;46021;55.882;37.654;2023-07-22T12:05:36;98936.19;;;25.18;30.34
50672;BME280;46021;55.882;37.654;2023-07-22T12:08:05;98939.88;;;24.91;30.72
50672;BME280;46021;55.882;37.654;2023-07-22T12:10:32;98934.19;;;25.20;30.84
50672;BME280;46021;55.882;37.654;2023-07-22T12:13:00;98937.47;;;25.06;30.98
50672;BME280;46021;55.882;37.654;2023-07-22T12:15:28;98939.97;;;25.42;31.08
50672;BME280;46021;55.882;37.654;2023-07-22T12:17:55;98931.38;;;25.89;30.13
50672;BME280;46021;55.882;37.654;2023-07-22T12:20:23;98918.53;;;26.25;30.02
50672;BME280;46021;55.882;37.654;2023-07-22T12:22:51;98939.44;;;26.30;30.06
50672;BME280;46021;55.882;37.654;2023-07-22T12:25:20;98934.00;;;25.73;30.26
50672;BME280;46021;55.882;37.654;2023-07-22T12:27:47;98921.94;;;25.27;31.12
50672;BME280;46021;55.882;37.654;2023-07-22T12:30:14;98935.56;;;25.24;31.32
50672;BME280;46021;55.882;37.654;2023-07-22T12:32:41;98933.69;;;24.82;31.71
50672;BME280;46021;55.882;37.654;2023-07-22T12:35:08;98925.56;;;23.96;32.30
50672;BME280;46021;55.882;37.654;2023-07-22T12:37:36;98934.28;;;23.24;33.20
50672;BME280;46021;55.882;37.654;2023-07-22T12:40:04;98952.28;;;23.03;34.08
50672;BME280;46021;55.882;37.654;2023-07-22T12:42:35;98971.69;;;22.66;36.51
50672;BME280;46021;55.882;37.654;2023-07-22T12:45:02;98961.97;;;22.27;38.27
50672;BME280;46021;55.882;37.654;2023-07-22T12:47:32;98964.59;;;21.98;39.13
50672;BME280;46021;55.882;37.654;2023-07-22T12:49:59;98977.53;;;21.62;40.33
50672;BME280;46021;55.882;37.654;2023-07-22T12:52:26;98967.69;;;21.43;41.40
50672;BME280;46021;55.882;37.654;2023-07-22T12:54:53;98970.44;;;21.22;42.97